Miami, FL

12:59 AM EST on November 28, 2014 (GMT -0500)
West Little River | Change Station
CLOSE
Current Station
Personal Weather Station
Location: Miami, FL
Elevation: 11 ft
Nearby Weather Stations

Elev 11 ft 25.85 °N, 80.21 °W | Updated 20 seconds ago

Clear
Clear
60.6 °F
Feels Like 60.6 °F
N
2.0
Wind Variable Wind from North
Gusts 4.9 mph

Today
High -- | Low -- °F
--% Chance of Precip.
Yesterday
High -- | Low -- °F
Precip. -- in
6:48 AM 5:29 PM
Waxing Crescent, 37% visible
Pressure 30.19 in
Visibility 10.0 miles
Clouds Clear
Dew Point 48 °F
Humidity 62%
Rainfall 0.00 in
Snow Depth Not available.
UV 0.0 out of 12
Pollen 4.30 out of 12
Air Quality Not available.
Flu Activity Not available.
METAR KMIA 280553Z 34010G17KT 10SM CLR 15/07 A3019 RMK AO2 SLP222 T01500067 10200 20150 58006

More Conditions Fewer Conditions

Pressure 30.19 in
Visibility 10.0 miles
Clouds Clear
Dew Point 48 °F
Humidity 62%
Rainfall 0.00 in
Snow Depth Not available.
UV 0.0 out of 12
Pollen 4.30 out of 12
Air Quality Not available.
Flu Activity Not available.
METAR KMIA 280553Z 34010G17KT 10SM CLR 15/07 A3019 RMK AO2 SLP222 T01500067 10200 20150 58006

More Conditions Fewer Conditions

10-Day Weather Forecast

Almanac

Astronomy

Nov. 28, 2014 Rise Set
Actual Time
Civil Twilight
Nautical Twilight
Astronomical Twilight
Moon
Length of Visible Light
Length of Day
Tomorrow will be .
, % of the Moon is Illuminated

Today's Extremes

State Highs State Lows

Community

WunderPhotos

Upload Photos

1,774,195 photos uploaded!

WunderBlogs® & News

Nearby

Air Quality

  Air Quality AQ Index Pollutant
Not available.

Snow Depth

Station Depth Elevation

Earthquake Activity

City Distance Mag. Time & Date
Minimum magnitude displayed is 2.5.

Coastal Water Temperatures

Place Temperature

Nearby Weather Stations